FW8553 Weather Reports


Display with metric or nautical units.
time (UTC)temp
F
wind
direction
speed
MPH
gust
MPH
rain 1hr
in
rain 24hr
in
rain mn
in
humidity
%
barometer
mb
20220625043135 79 132 0.0 0.0 0.00 0.00 0.00 82 1014.4
20220625042634 79 163 1.0 2.0 0.00 0.00 0.00 82 1014.7
20220625042134 79 178 0.0 0.0 0.00 0.00 0.00 83 1014.7
20220625041633 79 151 0.0 2.0 0.00 0.00 0.00 83 1014.7
20220625041132 79 147 0.0 0.0 0.00 0.00 0.00 82 1014.7
20220625040631 80 167 1.0 2.0 0.00 0.00 0.00 82 1014.7
20220625040129 80 154 0.0 0.0 0.00 0.00 0.00 81 1014.4
20220625035629 80 141 0.0 0.0 0.00 0.00 0.00 81 1014.4
20220625035128 80 154 0.0 0.0 0.00 0.00 0.00 80 1014.4
20220625034628 80 147 0.0 0.0 0.00 0.00 0.00 80 1014.7
20220625034127 80 153 1.0 2.0 0.00 0.00 0.00 80 1014.4
20220625033627 80 156 0.0 0.0 0.00 0.00 0.00 80 1014.7
20220625033126 80 161 0.0 2.0 0.00 0.00 0.00 79 1014.7
20220625032626 80 187 2.0 2.0 0.00 0.00 0.00 79 1014.7
20220625032125 80 167 1.0 2.0 0.00 0.00 0.00 79 1014.7
20220625031624 80 170 0.0 2.0 0.00 0.00 0.00 80 1014.4
20220625031123 80 175 0.0 0.0 0.00 0.00 0.00 80 1014.4
20220625030622 80 166 0.0 0.0 0.00 0.00 0.00 80 1014.4
20220625030122 80 135 0.0 0.0 0.00 0.00 0.00 80 1014.4
20220625025620 80 129 0.0 0.0 0.00 0.00 0.00 80 1014.4
20220625025119 80 132 0.0 0.0 0.00 0.00 0.00 79 1014.4
20220625024618 81 139 0.0 0.0 0.00 0.00 0.00 79 1014.7
20220625024118 81 166 0.0 0.0 0.00 0.00 0.00 78 1014.4
20220625023617 81 148 0.0 0.0 0.00 0.00 0.00 78 1014.4
20220625023116 81 190 2.0 2.0 0.00 0.00 0.00 79 1014.4
20220625022615 81 173 1.0 2.0 0.00 0.00 0.00 78 1014.4
20220625022114 81 146 0.0 0.0 0.00 0.00 0.00 77 1014.4
20220625021613 81 125 0.0 2.0 0.00 0.00 0.00 77 1014.4
20220625021112 81 138 0.0 0.0 0.00 0.00 0.00 76 1014.4
20220625020610 81 291 0.0 0.0 0.00 0.00 0.00 76 1014.4
20220625020109 81 142 0.0 0.0 0.00 0.00 0.00 76 1014.4
20220625015608 81 223 0.0 0.0 0.00 0.00 0.00 75 1014.4
20220625015106 81 320 2.0 2.0 0.00 0.00 0.00 74 1014.0
20220625014605 81 147 0.0 0.0 0.00 0.00 0.00 74 1013.7
20220625014104 81 132 0.0 0.0 0.00 0.00 0.00 74 1014.4
20220625013603 81 161 1.0 2.0 0.00 0.00 0.00 74 1014.0
20220625013103 82 160 1.0 2.0 0.00 0.00 0.00 73 1014.0
20220625012601 82 149 0.0 0.0 0.00 0.00 0.00 72 1014.0
20220625012100 82 248 0.0 2.0 0.00 0.00 0.00 72 1014.0
20220625011600 82 143 0.0 0.0 0.00 0.00 0.00 72 1014.0
20220625011100 82 129 1.0 2.0 0.00 0.00 0.00 73 1014.0
20220625010559 82 135 0.0 2.0 0.00 0.00 0.00 73 1014.0
20220625010059 82 105 1.0 2.0 0.00 0.00 0.00 73 1014.0
20220625005559 82 123 1.0 2.0 0.00 0.00 0.00 73 1013.7
20220625005057 83 10 3.0 3.0 0.00 0.00 0.00 73 1014.0
20220625004556 83 0 3.0 3.0 0.00 0.00 0.00 73 1013.7
20220625004054 83 138 1.0 2.0 0.00 0.00 0.00 73 1013.7
20220625003553 84 135 3.0 5.0 0.00 0.00 0.00 74 1014.0
20220625003052 85 263 2.0 3.0 0.00 0.00 0.00 76 1013.7
20220625002551 85 99 0.0 2.0 0.00 0.00 0.00 77 1013.3
20220625002050 86 308 1.0 2.0 0.00 0.00 0.00 76 1013.3
20220625001549 86 158 0.0 0.0 0.00 0.00 0.00 74 1013.7
20220625001049 86 136 0.0 2.0 0.00 0.00 0.00 74 1013.7
20220625000548 87 178 3.0 3.0 0.00 0.00 0.00 74 1013.3
20220625000046 87 198 4.0 5.0 0.00 0.00 0.00 74 1013.3
20220624235544 87 168 2.0 2.0 0.00 0.00 0.00 74 1013.0
20220624235044 87 204 3.0 5.0 0.00 0.00 0.00 73 1013.0
20220624234544 87 194 2.0 3.0 0.00 0.00 0.00 73 1013.0
20220624234042 87 160 1.0 2.0 0.00 0.00 0.00 73 1012.7
20220624233542 87 197 3.0 5.0 0.00 0.00 0.00 73 1012.7
20220624233041 88 247 4.0 5.0 0.00 0.00 0.00 72 1012.7
20220624232540 88 167 4.0 7.0 0.00 0.00 0.00 71 1012.7
20220624232039 88 173 3.0 5.0 0.00 0.00 0.00 71 1012.7
20220624231538 89 188 4.0 5.0 0.00 0.00 0.00 70 1012.3
20220624231037 89 187 5.0 5.0 0.00 0.00 0.00 70 1012.3
20220624230537 89 183 5.0 7.0 0.00 0.00 0.00 70 1012.3
20220624230036 89 153 6.0 7.0 0.00 0.00 0.00 69 1012.0
20220624225536 90 184 3.0 3.0 0.00 0.00 0.00 69 1012.0
20220624225035 90 196 7.0 10.0 0.00 0.00 0.00 68 1012.0
20220624224535 91 210 6.0 9.0 0.00 0.00 0.00 66 1011.7
20220624224035 91 135 4.0 5.0 0.00 0.00 0.00 67 1012.0
20220624223534 91 195 7.0 9.0 0.00 0.00 0.00 66 1012.0
20220624223033 92 164 3.0 3.0 0.00 0.00 0.00 66 1011.7
20220624222531 93 178 4.0 5.0 0.00 0.00 0.00 63 1011.7
20220624222030 92 159 2.0 3.0 0.00 0.00 0.00 64 1012.0
20220624221530 93 201 6.0 7.0 0.00 0.00 0.00 63 1011.7
20220624221029 93 1 2.0 2.0 0.00 0.00 0.00 62 1011.7
20220624220528 93 195 4.0 5.0 0.00 0.00 0.00 62 1011.7
20220624220027 93 209 6.0 9.0 0.00 0.00 0.00 63 1011.7
20220624215526 94 155 10.0 12.0 0.00 0.00 0.00 61 1011.3
20220624215027 95 180 4.0 5.0 0.00 0.00 0.00 59 1011.3
20220624214523 95 238 3.0 5.0 0.00 0.00 0.00 58 1011.0
20220624214023 94 204 4.0 5.0 0.00 0.00 0.00 59 1011.0
20220624213522 95 194 8.0 10.0 0.00 0.00 0.00 59 1011.3
20220624213020 95 194 5.0 7.0 0.00 0.00 0.00 58 1011.0
20220624212520 95 204 3.0 5.0 0.00 0.00 0.00 57 1011.0
20220624212018 95 179 5.0 7.0 0.00 0.00 0.00 58 1011.0
20220624211517 95 258 5.0 5.0 0.00 0.00 0.00 57 1011.0
20220624211016 96 203 3.0 3.0 0.00 0.00 0.00 57 1011.0
20220624210515 95 221 4.0 5.0 0.00 0.00 0.00 57 1011.0
20220624210014 95 158 6.0 7.0 0.00 0.00 0.00 58 1011.0
20220624205513 96 143 2.0 3.0 0.00 0.00 0.00 57 1011.3
20220624205012 96 191 4.0 7.0 0.00 0.00 0.00 58 1011.3
20220624204511 96 191 5.0 5.0 0.00 0.00 0.00 58 1011.3
20220624204010 95 147 1.0 2.0 0.00 0.00 0.00 56 1011.3
20220624203509 95 176 3.0 3.0 0.00 0.00 0.00 56 1011.3
20220624203007 95 135 5.0 5.0 0.00 0.00 0.00 58 1011.3
20220624202506 96 201 7.0 10.0 0.00 0.00 0.00 56 1011.3
20220624202006 96 257 3.0 5.0 0.00 0.00 0.00 53 1011.3
20220624201504 97 196 9.0 10.0 0.00 0.00 0.00 52 1011.3
20220624201004 97 13 0.0 0.0 0.00 0.00 0.00 51 1011.7
20220624200505 96 113 2.0 2.0 0.00 0.00 0.00 53 1011.7
20220624200003 94 175 4.0 7.0 0.00 0.00 0.00 56 1011.7
20220624195503 95 197 3.0 5.0 0.00 0.00 0.00 55 1011.7
20220624195001 95 182 2.0 3.0 0.00 0.00 0.00 55 1012.0
20220624194500 95 104 0.0 2.0 0.00 0.00 0.00 55 1011.7
20220624194000 97 223 4.0 5.0 0.00 0.00 0.00 53 1012.0
20220624193459 97 208 3.0 5.0 0.00 0.00 0.00 52 1012.0
20220624192957 95 1 1.0 2.0 0.00 0.00 0.00 56 1012.0
20220624192456 94 172 3.0 3.0 0.00 0.00 0.00 57 1012.0
20220624191954 95 185 6.0 9.0 0.00 0.00 0.00 55 1012.3
20220624191453 95 215 1.0 2.0 0.00 0.00 0.00 57 1012.7
20220624190952 95 137 1.0 2.0 0.00 0.00 0.00 56 1012.7
20220624190451 95 198 4.0 5.0 0.00 0.00 0.00 56 1012.3
20220624185950 93 184 3.0 3.0 0.00 0.00 0.00 55 1012.7
20220624185449 93 60 3.0 3.0 0.00 0.00 0.00 59 1012.7
20220624184948 96 167 3.0 3.0 0.00 0.00 0.00 55 1013.0
20220624184448 96 327 3.0 5.0 0.00 0.00 0.00 53 1013.0
20220624183946 93 234 3.0 3.0 0.00 0.00 0.00 56 1013.0
20220624183446 93 133 0.0 2.0 0.00 0.00 0.00 57 1013.3
20220624182945 93 95 2.0 2.0 0.00 0.00 0.00 57 1013.3
20220624182444 94 350 1.0 2.0 0.00 0.00 0.00 58 1013.3
20220624181943 95 153 1.0 2.0 0.00 0.00 0.00 57 1013.3
20220624181442 96 114 4.0 5.0 0.00 0.00 0.00 56 1013.3
20220624180940 97 138 5.0 7.0 0.00 0.00 0.00 53 1013.3
20220624180440 95 346 3.0 5.0 0.00 0.00 0.00 56 1013.3
20220624175938 95 348 9.0 10.0 0.00 0.00 0.00 56 1013.3
20220624175437 96 198 4.0 5.0 0.00 0.00 0.00 55 1013.7
20220624174935 97 220 1.0 3.0 0.00 0.00 0.00 52 1013.7
20220624174434 96 194 2.0 3.0 0.00 0.00 0.00 53 1013.3
20220624173933 96 255 5.0 7.0 0.00 0.00 0.00 53 1013.7
20220624173431 97 260 3.0 5.0 0.00 0.00 0.00 53 1013.7
20220624172931 95 287 2.0 3.0 0.00 0.00 0.00 53 1013.7
20220624172430 95 169 2.0 2.0 0.00 0.00 0.00 57 1013.3
20220624171929 96 193 3.0 5.0 0.00 0.00 0.00 55 1013.7
20220624171428 97 235 4.0 7.0 0.00 0.00 0.00 54 1013.7
20220624170927 98 300 3.0 5.0 0.00 0.00 0.00 51 1013.7
20220624170425 96 136 2.0 3.0 0.00 0.00 0.00 54 1013.7
20220624165924 95 121 1.0 2.0 0.00 0.00 0.00 55 1013.7
20220624165423 95 212 3.0 5.0 0.00 0.00 0.00 55 1013.7
20220624164922 94 179 1.0 2.0 0.00 0.00 0.00 56 1013.7
20220624164421 95 192 3.0 5.0 0.00 0.00 0.00 57 1013.7
20220624163920 96 234 7.0 9.0 0.00 0.00 0.00 56 1013.7
20220624163419 96 132 1.0 2.0 0.00 0.00 0.00 54 1013.7
20220624162918 96 195 3.0 5.0 0.00 0.00 0.00 54 1014.0
20220624162416 94 155 3.0 5.0 0.00 0.00 0.00 55 1014.0
20220624161916 94 192 4.0 5.0 0.00 0.00 0.00 56 1014.0
20220624161416 95 207 3.0 3.0 0.00 0.00 0.00 56 1014.0
20220624160916 94 239 3.0 3.0 0.00 0.00 0.00 55 1014.0
20220624160415 95 5 2.0 2.0 0.00 0.00 0.00 54 1014.0
20220624155915 95 222 1.0 2.0 0.00 0.00 0.00 55 1014.0
20220624155413 95 277 2.0 3.0 0.00 0.00 0.00 56 1014.0
20220624154912 96 55 1.0 2.0 0.00 0.00 0.00 55 1014.4
20220624154412 95 327 2.0 3.0 0.00 0.00 0.00 57 1014.0
20220624153911 94 224 1.0 2.0 0.00 0.00 0.00 59 1014.0
20220624153410 95 242 3.0 3.0 0.00 0.00 0.00 57 1014.0
20220624152909 94 236 2.0 2.0 0.00 0.00 0.00 57 1014.0
20220624152409 93 35 1.0 2.0 0.00 0.00 0.00 61 1013.7
20220624151907 93 70 1.0 2.0 0.00 0.00 0.00 59 1013.7
20220624151407 93 39 2.0 2.0 0.00 0.00 0.00 59 1014.0
20220624150905 93 304 3.0 3.0 0.00 0.00 0.00 58 1013.7
20220624150403 93 251 0.0 2.0 0.00 0.00 0.00 61 1014.0
20220624145903 94 108 1.0 2.0 0.00 0.00 0.00 58 1014.0
20220624145403 92 161 0.0 2.0 0.00 0.00 0.00 58 1013.7
20220624144902 91 48 1.0 2.0 0.00 0.00 0.00 61 1013.7
20220624144401 91 213 2.0 2.0 0.00 0.00 0.00 60 1013.7
20220624143901 92 187 3.0 3.0 0.00 0.00 0.00 61 1013.7
20220624143359 94 173 3.0 5.0 0.00 0.00 0.00 59 1013.7
20220624142859 94 161 3.0 5.0 0.00 0.00 0.00 57 1014.0
20220624142358 93 195 0.0 2.0 0.00 0.00 0.00 58 1014.0
20220624141858 93 195 3.0 3.0 0.00 0.00 0.00 58 1014.0
20220624141357 93 336 0.0 0.0 0.00 0.00 0.00 59 1013.7
20220624140856 92 147 0.0 2.0 0.00 0.00 0.00 60 1013.7
20220624140355 91 117 1.0 3.0 0.00 0.00 0.00 63 1013.7
20220624135853 93 184 3.0 3.0 0.00 0.00 0.00 58 1014.0
20220624135353 93 153 1.0 2.0 0.00 0.00 0.00 60 1013.7
20220624134853 92 203 1.0 2.0 0.00 0.00 0.00 59 1013.7
20220624134351 91 137 0.0 0.0 0.00 0.00 0.00 60 1013.7
20220624133850 90 173 2.0 3.0 0.00 0.00 0.00 64 1013.7
20220624133349 90 174 2.0 3.0 0.00 0.00 0.00 63 1013.7
20220624132847 90 190 4.0 5.0 0.00 0.00 0.00 63 1013.7
20220624132347 92 207 0.0 2.0 0.00 0.00 0.00 59 1013.7
20220624131846 91 157 0.0 0.0 0.00 0.00 0.00 60 1013.7
20220624131345 91 216 0.0 2.0 0.00 0.00 0.00 62 1013.3
20220624130844 91 79 2.0 2.0 0.00 0.00 0.00 61 1013.7
20220624130343 90 224 2.0 3.0 0.00 0.00 0.00 65 1013.7
20220624125842 90 179 4.0 5.0 0.00 0.00 0.00 65 1013.3
20220624125342 89 181 1.0 2.0 0.00 0.00 0.00 66 1013.3
20220624124840 89 202 2.0 2.0 0.00 0.00 0.00 65 1013.3
20220624124339 89 132 0.0 0.0 0.00 0.00 0.00 63 1013.3
20220624123838 89 164 0.0 2.0 0.00 0.00 0.00 68 1013.3
20220624123338 89 184 0.0 0.0 0.00 0.00 0.00 67 1013.3
20220624122837 88 133 0.0 0.0 0.00 0.00 0.00 69 1013.3
20220624122336 87 135 0.0 0.0 0.00 0.00 0.00 71 1013.3
20220624121835 86 138 0.0 2.0 0.00 0.00 0.00 75 1013.0
20220624121334 85 204 0.0 0.0 0.00 0.00 0.00 77 1013.0
20220624120833 85 129 0.0 0.0 0.00 0.00 0.00 77 1013.0
20220624120333 83 126 0.0 0.0 0.00 0.00 0.00 80 1013.0
20220624115832 82 134 0.0 0.0 0.00 0.00 0.00 84 1013.0
20220624115331 81 164 1.0 2.0 0.00 0.00 0.00 84 1013.0
20220624114831 81 163 1.0 2.0 0.00 0.00 0.00 85 1012.7
20220624114331 80 148 0.0 0.0 0.00 0.00 0.00 87 1012.7
20220624113830 79 190 2.0 2.0 0.00 0.00 0.00 88 1012.7
20220624113329 78 166 1.0 2.0 0.00 0.00 0.00 88 1012.7
20220624112828 78 173 0.0 2.0 0.00 0.00 0.00 89 1012.7
20220624112327 77 153 0.0 0.0 0.00 0.00 0.00 90 1012.7
20220624111825 77 155 0.0 0.0 0.00 0.00 0.00 91 1012.3
20220624111325 76 163 0.0 0.0 0.00 0.00 0.00 92 1012.3
20220624110823 76 157 0.0 0.0 0.00 0.00 0.00 93 1012.3
20220624110323 75 159 0.0 0.0 0.00 0.00 0.00 93 1012.7
20220624105822 75 161 0.0 0.0 0.00 0.00 0.00 94 1012.3
20220624105322 75 146 0.0 0.0 0.00 0.00 0.00 94 1012.0
20220624104820 74 143 0.0 0.0 0.00 0.00 0.00 94 1012.3
20220624104319 75 145 0.0 0.0 0.00 0.00 0.00 94 1012.3
20220624103817 74 139 0.0 0.0 0.00 0.00 0.00 94 1012.3
20220624103317 75 143 0.0 0.0 0.00 0.00 0.00 93 1012.0
20220624102816 75 144 0.0 0.0 0.00 0.00 0.00 93 1012.3
20220624102315 75 162 0.0 0.0 0.00 0.00 0.00 93 1012.3
20220624101814 75 163 0.0 0.0 0.00 0.00 0.00 93 1012.3
20220624101313 75 163 0.0 0.0 0.00 0.00 0.00 93 1012.0
20220624100812 75 163 0.0 0.0 0.00 0.00 0.00 93 1012.3
20220624100311 75 120 0.0 0.0 0.00 0.00 0.00 93 1012.3
20220624095810 75 120 0.0 0.0 0.00 0.00 0.00 93 1012.3
20220624095310 75 120 0.0 0.0 0.00 0.00 0.00 93 1012.0
20220624094809 75 120 0.0 0.0 0.00 0.00 0.00 93 1012.0
20220624094309 75 120 0.0 0.0 0.00 0.00 0.00 92 1012.0
20220624093808 75 120 0.0 0.0 0.00 0.00 0.00 92 1012.0
20220624093307 75 120 0.0 0.0 0.00 0.00 0.00 91 1011.7
20220624092807 76 120 0.0 0.0 0.00 0.00 0.00 91 1012.0
20220624092306 76 120 0.0 0.0 0.00 0.00 0.00 91 1011.7
20220624091805 76 120 0.0 0.0 0.00 0.00 0.00 91 1012.0
20220624091304 76 120 0.0 0.0 0.00 0.00 0.00 90 1012.0
20220624090804 76 120 0.0 0.0 0.00 0.00 0.00 90 1012.0
20220624090302 76 161 0.0 0.0 0.00 0.00 0.00 90 1012.0
20220624085802 76 160 0.0 0.0 0.00 0.00 0.00 90 1011.7
20220624085302 76 177 0.0 0.0 0.00 0.00 0.00 90 1011.7
20220624084802 76 151 0.0 0.0 0.00 0.00 0.00 90 1011.7
20220624084300 77 148 0.0 0.0 0.00 0.00 0.00 90 1011.7
20220624083800 76 148 0.0 0.0 0.00 0.00 0.00 90 1012.0
20220624083259 76 168 0.0 0.0 0.00 0.00 0.00 90 1011.7
20220624082757 76 155 0.0 0.0 0.00 0.00 0.00 90 1011.7
20220624082256 76 148 0.0 0.0 0.00 0.00 0.00 90 1012.0
20220624081754 76 207 0.0 0.0 0.00 0.00 0.00 90 1011.7
20220624081254 76 143 0.0 0.0 0.00 0.00 0.00 90 1011.7
20220624080753 76 160 0.0 0.0 0.00 0.00 0.00 90 1012.0
20220624080251 77 150 0.0 0.0 0.00 0.00 0.00 90 1012.0
20220624075750 77 157 0.0 0.0 0.00 0.00 0.00 89 1012.0
20220624075250 77 165 0.0 0.0 0.00 0.00 0.00 90 1012.0
20220624074748 77 173 2.0 3.0 0.00 0.00 0.00 90 1012.0
20220624074248 77 180 2.0 2.0 0.00 0.00 0.00 90 1012.0
20220624073748 77 169 0.0 0.0 0.00 0.00 0.00 90 1012.0
20220624073247 77 170 0.0 2.0 0.00 0.00 0.00 90 1012.0
20220624072746 77 187 1.0 2.0 0.00 0.00 0.00 90 1012.0
20220624072246 77 197 2.0 2.0 0.00 0.00 0.00 90 1012.0
20220624071744 77 176 1.0 2.0 0.00 0.00 0.00 90 1012.0
20220624071243 77 167 0.0 0.0 0.00 0.00 0.00 90 1012.0
20220624070741 77 165 0.0 0.0 0.00 0.00 0.00 90 1012.0
20220624070241 77 214 2.0 2.0 0.00 0.00 0.00 90 1012.0
20220624065740 77 178 1.0 2.0 0.00 0.00 0.00 90 1012.0
20220624065240 77 186 2.0 2.0 0.00 0.00 0.00 90 1012.0
20220624064738 77 163 0.0 0.0 0.00 0.00 0.00 90 1012.0
20220624064237 77 212 1.0 2.0 0.00 0.00 0.00 90 1012.0
20220624063736 77 186 1.0 2.0 0.00 0.00 0.00 90 1012.3
20220624063235 77 200 1.0 2.0 0.00 0.00 0.00 90 1012.0
20220624062735 77 178 1.0 2.0 0.00 0.00 0.00 90 1012.3
20220624062235 77 152 0.0 0.0 0.00 0.00 0.00 90 1012.0
20220624061733 77 188 0.0 2.0 0.00 0.00 0.00 90 1012.3
20220624061232 77 165 2.0 2.0 0.00 0.00 0.00 90 1012.3
20220624060732 77 165 1.0 2.0 0.00 0.00 0.00 90 1012.3
20220624060231 77 182 2.0 2.0 0.00 0.00 0.00 90 1012.3
20220624055730 77 194 1.0 2.0 0.00 0.00 0.00 90 1012.3
20220624055229 77 180 1.0 2.0 0.00 0.00 0.00 90 1012.3
20220624054728 78 179 1.0 2.0 0.00 0.00 0.00 90 1012.7
20220624054228 78 166 1.0 2.0 0.00 0.00 0.00 90 1012.3
20220624053727 78 178 2.0 3.0 0.00 0.00 0.00 89 1012.3
20220624053226 78 194 2.0 2.0 0.00 0.00 0.00 89 1012.7
20220624052725 78 201 2.0 3.0 0.00 0.00 0.00 89 1012.7
20220624052223 78 185 2.0 3.0 0.00 0.00 0.00 89 1012.3
20220624051723 78 201 1.0 2.0 0.00 0.00 0.00 89 1012.7
20220624051222 78 191 2.0 2.0 0.00 0.00 0.00 89 1012.7
20220624050723 78 213 2.0 2.0 0.00 0.00 0.00 88 1012.7
20220624050221 78 190 1.0 2.0 0.00 0.00 0.00 88 1012.7
20220624045720 78 161 0.0 2.0 0.00 0.00 0.00 88 1012.7
20220624045219 78 148 0.0 0.0 0.00 0.00 0.00 87 1012.7
20220624044717 79 186 1.0 2.0 0.00 0.00 0.00 87 1012.7
20220624044216 79 155 0.0 0.0 0.00 0.00 0.00 87 1012.7
20220624043715 79 195 1.0 2.0 0.00 0.00 0.00 86 1012.7